sensor_id;sensor_type;location;lat;lon;timestamp;pressure;altitude;pressure_sealevel;temperature;humidity
40946;BME280;55635;50.264;11.918;2023-01-16T00:01:28;94410.94;;;3.40;87.49
40946;BME280;55635;50.264;11.918;2023-01-16T00:04:09;94406.28;;;3.19;87.75
40946;BME280;55635;50.264;11.918;2023-01-16T00:06:50;94404.00;;;3.24;88.10
40946;BME280;55635;50.264;11.918;2023-01-16T00:09:31;94397.53;;;3.35;87.90
40946;BME280;55635;50.264;11.918;2023-01-16T00:12:12;94394.44;;;3.39;87.80
40946;BME280;55635;50.264;11.918;2023-01-16T00:14:53;94407.28;;;3.18;87.88
40946;BME280;55635;50.264;11.918;2023-01-16T00:17:34;94397.19;;;3.38;88.08
40946;BME280;55635;50.264;11.918;2023-01-16T00:20:16;94399.53;;;3.33;87.55
40946;BME280;55635;50.264;11.918;2023-01-16T00:22:57;94385.19;;;3.12;88.56
40946;BME280;55635;50.264;11.918;2023-01-16T00:25:42;94382.94;;;3.40;87.75
40946;BME280;55635;50.264;11.918;2023-01-16T00:28:23;94371.53;;;3.33;87.81
40946;BME280;55635;50.264;11.918;2023-01-16T00:31:05;94366.38;;;3.17;87.35
40946;BME280;55635;50.264;11.918;2023-01-16T00:33:46;94360.59;;;3.21;87.78
40946;BME280;55635;50.264;11.918;2023-01-16T00:36:27;94360.66;;;3.13;87.96
40946;BME280;55635;50.264;11.918;2023-01-16T00:39:08;94362.94;;;3.16;87.54
40946;BME280;55635;50.264;11.918;2023-01-16T00:41:49;94353.56;;;3.22;87.81
40946;BME280;55635;50.264;11.918;2023-01-16T00:44:30;94350.19;;;3.44;86.54
40946;BME280;55635;50.264;11.918;2023-01-16T00:47:11;94349.28;;;3.29;86.93
40946;BME280;55635;50.264;11.918;2023-01-16T00:49:52;94348.72;;;3.42;86.57
40946;BME280;55635;50.264;11.918;2023-01-16T00:52:33;94348.84;;;3.48;86.55
40946;BME280;55635;50.264;11.918;2023-01-16T00:55:14;94351.34;;;3.42;86.08
40946;BME280;55635;50.264;11.918;2023-01-16T00:57:55;94337.16;;;3.28;86.21
40946;BME280;55635;50.264;11.918;2023-01-16T01:00:39;94324.41;;;3.33;86.22
40946;BME280;55635;50.264;11.918;2023-01-16T01:03:20;94334.88;;;3.02;87.20
40946;BME280;55635;50.264;11.918;2023-01-16T01:06:06;94335.22;;;3.30;86.81
40946;BME280;55635;50.264;11.918;2023-01-16T01:08:47;94320.00;;;3.25;86.58
40946;BME280;55635;50.264;11.918;2023-01-16T01:11:28;94331.34;;;3.18;86.53
40946;BME280;55635;50.264;11.918;2023-01-16T01:14:09;94321.53;;;3.20;86.41
40946;BME280;55635;50.264;11.918;2023-01-16T01:16:50;94326.28;;;3.16;86.52
40946;BME280;55635;50.264;11.918;2023-01-16T01:19:31;94324.81;;;3.14;86.72
40946;BME280;55635;50.264;11.918;2023-01-16T01:22:13;94335.59;;;3.19;86.05
40946;BME280;55635;50.264;11.918;2023-01-16T01:24:54;94318.81;;;3.36;85.85
40946;BME280;55635;50.264;11.918;2023-01-16T01:30:27;94306.63;;;3.20;85.58
40946;BME280;55635;50.264;11.918;2023-01-16T01:33:08;94304.38;;;3.09;85.30
40946;BME280;55635;50.264;11.918;2023-01-16T01:35:50;94298.09;;;3.18;85.68
40946;BME280;55635;50.264;11.918;2023-01-16T01:38:31;94294.56;;;3.11;86.16
40946;BME280;55635;50.264;11.918;2023-01-16T01:41:13;94293.47;;;3.28;86.15
40946;BME280;55635;50.264;11.918;2023-01-16T01:43:55;94285.56;;;3.37;85.05
40946;BME280;55635;50.264;11.918;2023-01-16T01:46:43;94263.81;;;3.36;85.17
40946;BME280;55635;50.264;11.918;2023-01-16T01:49:29;94278.69;;;3.58;83.98
40946;BME280;55635;50.264;11.918;2023-01-16T01:52:12;94264.94;;;3.34;84.69
40946;BME280;55635;50.264;11.918;2023-01-16T01:55:04;94270.41;;;3.69;84.57
40946;BME280;55635;50.264;11.918;2023-01-16T01:57:58;94256.75;;;3.59;84.47
40946;BME280;55635;50.264;11.918;2023-01-16T02:00:40;94258.38;;;3.38;86.05
40946;BME280;55635;50.264;11.918;2023-01-16T02:03:34;94257.38;;;3.61;84.64
40946;BME280;55635;50.264;11.918;2023-01-16T02:06:30;94244.59;;;3.44;84.76
40946;BME280;55635;50.264;11.918;2023-01-16T02:09:14;94236.56;;;3.22;85.22
40946;BME280;55635;50.264;11.918;2023-01-16T02:12:00;94229.91;;;3.57;84.43
40946;BME280;55635;50.264;11.918;2023-01-16T02:14:44;94238.03;;;3.62;84.70
40946;BME280;55635;50.264;11.918;2023-01-16T02:17:27;94236.56;;;3.45;84.24
40946;BME280;55635;50.264;11.918;2023-01-16T02:20:26;94234.09;;;3.66;83.91
40946;BME280;55635;50.264;11.918;2023-01-16T02:23:50;94232.56;;;3.49;83.68
40946;BME280;55635;50.264;11.918;2023-01-16T02:46:57;94166.25;;;3.34;82.93
40946;BME280;55635;50.264;11.918;2023-01-16T02:50:11;94163.97;;;3.31;83.93
40946;BME280;55635;50.264;11.918;2023-01-16T02:53:16;94149.56;;;3.12;83.80
40946;BME280;55635;50.264;11.918;2023-01-16T02:56:07;94154.09;;;3.18;83.43
40946;BME280;55635;50.264;11.918;2023-01-16T02:58:51;94128.97;;;3.09;83.89
40946;BME280;55635;50.264;11.918;2023-01-16T03:01:34;94142.03;;;3.32;83.60
40946;BME280;55635;50.264;11.918;2023-01-16T03:04:52;94135.16;;;3.31;83.18
40946;BME280;55635;50.264;11.918;2023-01-16T03:24:00;94094.34;;;3.37;83.32
40946;BME280;55635;50.264;11.918;2023-01-16T03:26:48;94086.69;;;3.35;83.24
40946;BME280;55635;50.264;11.918;2023-01-16T03:29:48;94079.28;;;3.39;82.64
40946;BME280;55635;50.264;11.918;2023-01-16T03:32:49;94082.63;;;3.47;82.54
40946;BME280;55635;50.264;11.918;2023-01-16T03:38:34;94063.94;;;3.50;82.39
40946;BME280;55635;50.264;11.918;2023-01-16T03:41:20;94067.19;;;3.38;82.63
40946;BME280;55635;50.264;11.918;2023-01-16T03:44:08;94082.81;;;3.60;83.14
40946;BME280;55635;50.264;11.918;2023-01-16T03:46:54;94073.94;;;3.61;82.99
40946;BME280;55635;50.264;11.918;2023-01-16T03:49:41;94075.94;;;3.59;82.55
40946;BME280;55635;50.264;11.918;2023-01-16T03:52:35;94069.63;;;3.54;82.88
40946;BME280;55635;50.264;11.918;2023-01-16T03:55:41;94060.22;;;3.74;82.25
40946;BME280;55635;50.264;11.918;2023-01-16T03:58:31;94050.72;;;3.58;82.98
40946;BME280;55635;50.264;11.918;2023-01-16T04:01:23;94059.59;;;3.57;83.19
40946;BME280;55635;50.264;11.918;2023-01-16T04:04:16;94031.59;;;3.43;83.68
40946;BME280;55635;50.264;11.918;2023-01-16T04:07:07;94049.56;;;3.61;83.43
40946;BME280;55635;50.264;11.918;2023-01-16T04:10:00;94039.00;;;3.54;83.33
40946;BME280;55635;50.264;11.918;2023-01-16T04:12:47;94031.31;;;3.53;83.69
40946;BME280;55635;50.264;11.918;2023-01-16T04:15:32;94025.44;;;3.21;84.88
40946;BME280;55635;50.264;11.918;2023-01-16T04:18:14;94022.66;;;3.23;84.79
40946;BME280;55635;50.264;11.918;2023-01-16T04:20:56;94022.34;;;3.03;85.85
40946;BME280;55635;50.264;11.918;2023-01-16T04:23:37;94003.56;;;3.00;86.74
40946;BME280;55635;50.264;11.918;2023-01-16T04:26:17;94002.03;;;2.91;86.54
40946;BME280;55635;50.264;11.918;2023-01-16T04:28:58;93988.31;;;3.03;86.59
40946;BME280;55635;50.264;11.918;2023-01-16T04:31:39;93982.63;;;2.85;86.75
40946;BME280;55635;50.264;11.918;2023-01-16T04:34:20;93977.94;;;2.81;87.72
40946;BME280;55635;50.264;11.918;2023-01-16T04:37:01;93968.53;;;2.71;87.33
40946;BME280;55635;50.264;11.918;2023-01-16T04:39:42;93963.31;;;2.71;87.64
40946;BME280;55635;50.264;11.918;2023-01-16T04:42:23;93970.34;;;2.86;87.08
40946;BME280;55635;50.264;11.918;2023-01-16T04:45:05;93968.56;;;2.86;87.81
40946;BME280;55635;50.264;11.918;2023-01-16T04:47:47;93953.69;;;2.49;88.58
40946;BME280;55635;50.264;11.918;2023-01-16T04:50:28;93959.78;;;2.64;88.55
40946;BME280;55635;50.264;11.918;2023-01-16T04:53:09;93964.38;;;2.62;88.31
40946;BME280;55635;50.264;11.918;2023-01-16T04:55:50;93954.56;;;2.42;89.53
40946;BME280;55635;50.264;11.918;2023-01-16T04:58:31;93954.22;;;2.45;89.52
40946;BME280;55635;50.264;11.918;2023-01-16T05:01:12;93951.56;;;2.53;88.92
40946;BME280;55635;50.264;11.918;2023-01-16T05:03:52;93951.72;;;2.51;88.96
40946;BME280;55635;50.264;11.918;2023-01-16T05:06:34;93943.91;;;2.29;90.10
40946;BME280;55635;50.264;11.918;2023-01-16T05:09:15;93940.22;;;2.00;90.93
40946;BME280;55635;50.264;11.918;2023-01-16T05:11:56;93938.97;;;2.34;89.68
40946;BME280;55635;50.264;11.918;2023-01-16T05:14:37;93937.25;;;2.03;90.47
40946;BME280;55635;50.264;11.918;2023-01-16T05:17:18;93909.09;;;2.13;90.02
40946;BME280;55635;50.264;11.918;2023-01-16T05:20:03;93919.44;;;2.07;90.70
40946;BME280;55635;50.264;11.918;2023-01-16T05:22:44;93925.03;;;2.18;90.26
40946;BME280;55635;50.264;11.918;2023-01-16T05:25:25;93908.50;;;2.03;90.58
40946;BME280;55635;50.264;11.918;2023-01-16T05:28:06;93926.63;;;2.05;90.60
40946;BME280;55635;50.264;11.918;2023-01-16T05:30:48;93905.78;;;1.97;90.92
40946;BME280;55635;50.264;11.918;2023-01-16T05:33:29;93898.06;;;2.03;90.38
40946;BME280;55635;50.264;11.918;2023-01-16T05:36:10;93889.88;;;2.06;90.90
40946;BME280;55635;50.264;11.918;2023-01-16T05:38:57;93893.94;;;2.24;90.42
40946;BME280;55635;50.264;11.918;2023-01-16T05:41:38;93906.88;;;2.40;89.37
40946;BME280;55635;50.264;11.918;2023-01-16T05:44:18;93905.59;;;2.36;88.94
40946;BME280;55635;50.264;11.918;2023-01-16T05:47:00;93894.06;;;2.30;89.03
40946;BME280;55635;50.264;11.918;2023-01-16T05:49:40;93894.13;;;2.22;88.79
40946;BME280;55635;50.264;11.918;2023-01-16T05:52:21;93879.66;;;2.34;89.39
40946;BME280;55635;50.264;11.918;2023-01-16T05:55:03;93863.59;;;2.23;89.92
40946;BME280;55635;50.264;11.918;2023-01-16T05:57:44;93869.47;;;2.54;88.92
40946;BME280;55635;50.264;11.918;2023-01-16T06:00:25;93871.91;;;2.55;87.71
40946;BME280;55635;50.264;11.918;2023-01-16T06:03:06;93874.78;;;2.60;88.26
40946;BME280;55635;50.264;11.918;2023-01-16T06:05:48;93869.41;;;2.62;87.95
40946;BME280;55635;50.264;11.918;2023-01-16T06:08:29;93870.94;;;2.56;87.58
40946;BME280;55635;50.264;11.918;2023-01-16T06:11:10;93865.50;;;2.58;87.68
40946;BME280;55635;50.264;11.918;2023-01-16T06:13:50;93869.56;;;2.60;86.92
40946;BME280;55635;50.264;11.918;2023-01-16T06:16:32;93866.22;;;2.52;87.07
40946;BME280;55635;50.264;11.918;2023-01-16T06:19:13;93860.91;;;2.60;87.09
40946;BME280;55635;50.264;11.918;2023-01-16T06:21:54;93863.97;;;2.63;86.77
40946;BME280;55635;50.264;11.918;2023-01-16T06:24:35;93878.31;;;2.82;86.76
40946;BME280;55635;50.264;11.918;2023-01-16T06:27:15;93878.56;;;2.72;86.56
40946;BME280;55635;50.264;11.918;2023-01-16T06:29:56;93861.38;;;2.78;86.71
40946;BME280;55635;50.264;11.918;2023-01-16T06:32:38;93861.63;;;2.68;87.11
40946;BME280;55635;50.264;11.918;2023-01-16T06:35:19;93853.25;;;2.58;87.47
40946;BME280;55635;50.264;11.918;2023-01-16T06:37:59;93848.63;;;2.46;87.69
40946;BME280;55635;50.264;11.918;2023-01-16T06:40:40;93848.00;;;2.44;87.18
40946;BME280;55635;50.264;11.918;2023-01-16T06:43:26;93839.72;;;2.40;87.25
40946;BME280;55635;50.264;11.918;2023-01-16T06:46:07;93845.56;;;2.57;87.13
40946;BME280;55635;50.264;11.918;2023-01-16T06:48:48;93851.97;;;2.54;87.24
40946;BME280;55635;50.264;11.918;2023-01-16T06:51:28;93836.75;;;2.43;87.76
40946;BME280;55635;50.264;11.918;2023-01-16T06:54:10;93820.59;;;2.25;88.24
40946;BME280;55635;50.264;11.918;2023-01-16T06:56:51;93838.78;;;2.48;87.76
40946;BME280;55635;50.264;11.918;2023-01-16T06:59:32;93825.28;;;2.44;87.33
40946;BME280;55635;50.264;11.918;2023-01-16T07:02:13;93819.16;;;2.37;88.91
40946;BME280;55635;50.264;11.918;2023-01-16T07:04:53;93808.50;;;2.68;87.51
40946;BME280;55635;50.264;11.918;2023-01-16T07:07:35;93812.28;;;2.51;86.94
40946;BME280;55635;50.264;11.918;2023-01-16T07:10:17;93797.41;;;2.51;87.14
40946;BME280;55635;50.264;11.918;2023-01-16T07:13:00;93792.19;;;2.51;87.90
40946;BME280;55635;50.264;11.918;2023-01-16T07:15:46;93790.09;;;2.61;87.16
40946;BME280;55635;50.264;11.918;2023-01-16T07:18:46;93782.72;;;2.50;86.48
40946;BME280;55635;50.264;11.918;2023-01-16T07:21:50;93786.03;;;2.73;86.53
40946;BME280;55635;50.264;11.918;2023-01-16T07:24:50;93779.38;;;2.56;86.62
40946;BME280;55635;50.264;11.918;2023-01-16T07:27:31;93772.03;;;2.66;86.29
40946;BME280;55635;50.264;11.918;2023-01-16T07:30:12;93764.56;;;2.63;86.35
40946;BME280;55635;50.264;11.918;2023-01-16T07:32:53;93760.44;;;2.54;85.75
40946;BME280;55635;50.264;11.918;2023-01-16T07:35:34;93772.03;;;2.66;86.27
40946;BME280;55635;50.264;11.918;2023-01-16T07:38:15;93761.06;;;2.71;86.12
40946;BME280;55635;50.264;11.918;2023-01-16T07:40:56;93754.34;;;2.83;85.66
40946;BME280;55635;50.264;11.918;2023-01-16T07:43:37;93740.03;;;2.64;86.77
40946;BME280;55635;50.264;11.918;2023-01-16T07:46:18;93723.72;;;2.62;86.57
40946;BME280;55635;50.264;11.918;2023-01-16T07:48:59;93720.81;;;2.72;87.13
40946;BME280;55635;50.264;11.918;2023-01-16T07:51:40;93715.03;;;2.77;86.86
40946;BME280;55635;50.264;11.918;2023-01-16T07:54:21;93713.16;;;2.92;85.97
40946;BME280;55635;50.264;11.918;2023-01-16T07:57:03;93693.59;;;3.09;85.19
40946;BME280;55635;50.264;11.918;2023-01-16T07:59:44;93682.47;;;3.49;83.31
40946;BME280;55635;50.264;11.918;2023-01-16T08:02:24;93679.47;;;3.80;82.28
40946;BME280;55635;50.264;11.918;2023-01-16T08:05:06;93671.59;;;3.52;82.44
40946;BME280;55635;50.264;11.918;2023-01-16T08:07:47;93661.22;;;3.65;82.41
40946;BME280;55635;50.264;11.918;2023-01-16T08:10:30;93657.25;;;4.10;81.49
40946;BME280;55635;50.264;11.918;2023-01-16T08:13:11;93654.31;;;4.26;80.04
40946;BME280;55635;50.264;11.918;2023-01-16T08:15:52;93645.63;;;4.26;79.96
40946;BME280;55635;50.264;11.918;2023-01-16T08:18:36;93634.50;;;4.17;79.06
40946;BME280;55635;50.264;11.918;2023-01-16T08:21:17;93636.72;;;4.20;78.10
40946;BME280;55635;50.264;11.918;2023-01-16T08:23:58;93623.59;;;4.68;77.49
40946;BME280;55635;50.264;11.918;2023-01-16T08:26:39;93609.41;;;4.49;76.96
40946;BME280;55635;50.264;11.918;2023-01-16T08:29:21;93620.28;;;4.39;76.97
40946;BME280;55635;50.264;11.918;2023-01-16T08:32:04;93639.72;;;4.71;75.59
40946;BME280;55635;50.264;11.918;2023-01-16T08:34:45;93610.03;;;4.64;75.77
40946;BME280;55635;50.264;11.918;2023-01-16T08:37:26;93615.88;;;4.60;76.49
40946;BME280;55635;50.264;11.918;2023-01-16T08:40:12;93613.69;;;4.76;76.95
40946;BME280;55635;50.264;11.918;2023-01-16T08:42:53;93615.47;;;4.63;75.45
40946;BME280;55635;50.264;11.918;2023-01-16T08:45:52;93610.50;;;5.01;75.58
40946;BME280;55635;50.264;11.918;2023-01-16T08:48:52;93580.53;;;4.49;75.08
40946;BME280;55635;50.264;11.918;2023-01-16T08:51:51;93594.53;;;5.02;74.02
40946;BME280;55635;50.264;11.918;2023-01-16T08:54:32;93570.50;;;4.85;75.28
40946;BME280;55635;50.264;11.918;2023-01-16T08:57:13;93575.16;;;5.10;73.29
40946;BME280;55635;50.264;11.918;2023-01-16T08:59:56;93569.91;;;5.16;74.01
40946;BME280;55635;50.264;11.918;2023-01-16T09:02:37;93572.53;;;5.23;72.75
40946;BME280;55635;50.264;11.918;2023-01-16T09:05:19;93555.16;;;5.35;72.38
40946;BME280;55635;50.264;11.918;2023-01-16T09:08:00;93560.19;;;5.43;73.36
40946;BME280;55635;50.264;11.918;2023-01-16T09:10:41;93554.28;;;5.54;72.21
40946;BME280;55635;50.264;11.918;2023-01-16T09:13:42;93549.38;;;5.77;70.06
40946;BME280;55635;50.264;11.918;2023-01-16T09:16:31;93547.25;;;6.12;69.82
40946;BME280;55635;50.264;11.918;2023-01-16T09:19:12;93530.84;;;6.17;70.88
40946;BME280;55635;50.264;11.918;2023-01-16T09:21:53;93530.22;;;6.21;68.80
40946;BME280;55635;50.264;11.918;2023-01-16T09:24:38;93539.72;;;5.65;69.11
40946;BME280;55635;50.264;11.918;2023-01-16T09:27:22;93519.44;;;5.78;69.59
40946;BME280;55635;50.264;11.918;2023-01-16T09:30:05;93516.22;;;5.76;70.13
40946;BME280;55635;50.264;11.918;2023-01-16T09:32:47;93506.34;;;5.65;69.76
40946;BME280;55635;50.264;11.918;2023-01-16T09:35:28;93503.75;;;5.52;71.08
40946;BME280;55635;50.264;11.918;2023-01-16T09:38:09;93503.53;;;5.54;71.36
40946;BME280;55635;50.264;11.918;2023-01-16T09:40:58;93498.66;;;5.64;70.89
40946;BME280;55635;50.264;11.918;2023-01-16T09:43:46;93500.66;;;5.75;68.97
40946;BME280;55635;50.264;11.918;2023-01-16T09:46:30;93495.06;;;6.09;69.59
40946;BME280;55635;50.264;11.918;2023-01-16T09:49:30;93481.09;;;6.46;69.44
40946;BME280;55635;50.264;11.918;2023-01-16T09:52:17;93478.34;;;6.35;67.81
40946;BME280;55635;50.264;11.918;2023-01-16T09:55:33;93471.81;;;6.06;69.19
40946;BME280;55635;50.264;11.918;2023-01-16T09:59:02;93464.88;;;6.49;68.61
40946;BME280;55635;50.264;11.918;2023-01-16T10:05:00;93448.25;;;6.18;67.78
40946;BME280;55635;50.264;11.918;2023-01-16T10:08:04;93436.91;;;6.24;70.21
40946;BME280;55635;50.264;11.918;2023-01-16T10:11:06;93439.44;;;6.06;69.39
40946;BME280;55635;50.264;11.918;2023-01-16T10:26:30;93398.97;;;6.63;66.01
40946;BME280;55635;50.264;11.918;2023-01-16T10:29:22;93386.34;;;6.89;65.32
40946;BME280;55635;50.264;11.918;2023-01-16T10:35:25;93367.41;;;7.17;65.44
40946;BME280;55635;50.264;11.918;2023-01-16T10:41:29;93351.25;;;7.13;64.48
40946;BME280;55635;50.264;11.918;2023-01-16T10:44:54;93345.44;;;7.41;63.98
40946;BME280;55635;50.264;11.918;2023-01-16T10:47:55;93327.31;;;6.79;63.67
40946;BME280;55635;50.264;11.918;2023-01-16T10:50:55;93323.94;;;7.26;63.40
40946;BME280;55635;50.264;11.918;2023-01-16T10:53:37;93308.03;;;7.33;62.48
40946;BME280;55635;50.264;11.918;2023-01-16T10:56:18;93319.84;;;7.60;64.65
40946;BME280;55635;50.264;11.918;2023-01-16T10:58:59;93314.16;;;7.45;62.42
40946;BME280;55635;50.264;11.918;2023-01-16T11:01:41;93308.53;;;7.41;63.13
40946;BME280;55635;50.264;11.918;2023-01-16T11:04:35;93281.72;;;7.44;63.10
40946;BME280;55635;50.264;11.918;2023-01-16T11:07:20;93295.72;;;7.45;61.33
40946;BME280;55635;50.264;11.918;2023-01-16T11:10:01;93285.97;;;6.97;63.08
40946;BME280;55635;50.264;11.918;2023-01-16T11:12:42;93289.78;;;7.01;62.09
40946;BME280;55635;50.264;11.918;2023-01-16T11:16:20;93300.09;;;6.24;63.86
40946;BME280;55635;50.264;11.918;2023-01-16T11:19:23;93281.34;;;6.38;62.81
40946;BME280;55635;50.264;11.918;2023-01-16T11:22:25;93276.16;;;7.04;63.52
40946;BME280;55635;50.264;11.918;2023-01-16T11:25:15;93285.94;;;7.34;62.22
40946;BME280;55635;50.264;11.918;2023-01-16T11:28:06;93265.63;;;7.34;61.62
40946;BME280;55635;50.264;11.918;2023-01-16T11:30:48;93252.81;;;7.08;62.11
40946;BME280;55635;50.264;11.918;2023-01-16T11:33:40;93242.25;;;7.26;62.09
40946;BME280;55635;50.264;11.918;2023-01-16T11:36:24;93229.69;;;7.10;61.53
40946;BME280;55635;50.264;11.918;2023-01-16T11:39:15;93215.97;;;7.20;62.03
40946;BME280;55635;50.264;11.918;2023-01-16T11:42:02;93219.78;;;7.24;61.61
40946;BME280;55635;50.264;11.918;2023-01-16T11:45:29;93214.56;;;7.47;62.65
40946;BME280;55635;50.264;11.918;2023-01-16T11:48:44;93174.72;;;7.13;63.33
40946;BME280;55635;50.264;11.918;2023-01-16T11:51:31;93187.91;;;7.25;61.27
40946;BME280;55635;50.264;11.918;2023-01-16T11:54:24;93169.50;;;6.95;64.78
40946;BME280;55635;50.264;11.918;2023-01-16T12:13:08;93114.72;;;6.86;61.83
40946;BME280;55635;50.264;11.918;2023-01-16T12:16:37;93090.97;;;7.16;61.21
40946;BME280;55635;50.264;11.918;2023-01-16T12:41:52;93019.00;;;6.92;62.19
40946;BME280;55635;50.264;11.918;2023-01-16T12:54:21;92987.88;;;7.00;60.53
40946;BME280;55635;50.264;11.918;2023-01-16T13:00:14;92963.38;;;6.24;61.15
40946;BME280;55635;50.264;11.918;2023-01-16T13:03:27;92970.28;;;6.48;62.04
40946;BME280;55635;50.264;11.918;2023-01-16T13:06:37;92961.50;;;6.54;64.41
40946;BME280;55635;50.264;11.918;2023-01-16T13:09:51;92949.16;;;7.12;63.29
40946;BME280;55635;50.264;11.918;2023-01-16T13:12:57;92941.53;;;6.35;62.92
40946;BME280;55635;50.264;11.918;2023-01-16T13:16:15;92938.16;;;6.16;63.73
40946;BME280;55635;50.264;11.918;2023-01-16T13:19:43;92942.25;;;6.12;64.40
40946;BME280;55635;50.264;11.918;2023-01-16T13:22:32;92948.91;;;6.15;63.82
40946;BME280;55635;50.264;11.918;2023-01-16T13:28:43;92901.88;;;6.07;63.83
40946;BME280;55635;50.264;11.918;2023-01-16T13:32:06;92906.13;;;6.08;63.34
40946;BME280;55635;50.264;11.918;2023-01-16T13:34:54;92916.81;;;5.94;64.02
40946;BME280;55635;50.264;11.918;2023-01-16T13:44:17;92898.13;;;6.14;64.12
40946;BME280;55635;50.264;11.918;2023-01-16T13:47:28;92893.66;;;6.15;63.63
40946;BME280;55635;50.264;11.918;2023-01-16T13:50:31;92880.75;;;6.13;64.43
40946;BME280;55635;50.264;11.918;2023-01-16T13:53:16;92902.41;;;5.97;63.52
40946;BME280;55635;50.264;11.918;2023-01-16T13:59:06;92890.56;;;5.76;64.58
40946;BME280;55635;50.264;11.918;2023-01-16T14:04:31;92883.59;;;5.52;64.77
40946;BME280;55635;50.264;11.918;2023-01-16T14:07:49;92903.81;;;5.81;63.58
40946;BME280;55635;50.264;11.918;2023-01-16T14:13:39;92875.09;;;5.68;64.43
40946;BME280;55635;50.264;11.918;2023-01-16T14:16:35;92868.22;;;5.67;63.68
40946;BME280;55635;50.264;11.918;2023-01-16T14:19:23;92870.66;;;5.69;64.07
40946;BME280;55635;50.264;11.918;2023-01-16T14:22:04;92887.13;;;5.46;64.58
40946;BME280;55635;50.264;11.918;2023-01-16T14:24:54;92892.91;;;5.66;64.62
40946;BME280;55635;50.264;11.918;2023-01-16T14:27:40;92883.00;;;5.68;65.59
40946;BME280;55635;50.264;11.918;2023-01-16T14:30:30;92881.38;;;5.67;64.00
40946;BME280;55635;50.264;11.918;2023-01-16T14:33:16;92876.47;;;5.89;63.47
40946;BME280;55635;50.264;11.918;2023-01-16T14:36:00;92860.25;;;5.74;63.40
40946;BME280;55635;50.264;11.918;2023-01-16T14:38:45;92869.94;;;5.62;63.77
40946;BME280;55635;50.264;11.918;2023-01-16T14:41:30;92843.63;;;5.50;63.81
40946;BME280;55635;50.264;11.918;2023-01-16T14:44:30;92847.53;;;5.59;62.99
40946;BME280;55635;50.264;11.918;2023-01-16T14:47:30;92839.69;;;5.71;64.84
40946;BME280;55635;50.264;11.918;2023-01-16T14:51:31;92842.06;;;5.72;64.24
40946;BME280;55635;50.264;11.918;2023-01-16T14:57:28;92827.28;;;5.60;63.63
40946;BME280;55635;50.264;11.918;2023-01-16T15:00:14;92860.75;;;5.53;63.55
40946;BME280;55635;50.264;11.918;2023-01-16T15:03:14;92847.09;;;5.62;64.38
40946;BME280;55635;50.264;11.918;2023-01-16T15:05:58;92840.78;;;5.33;65.77
40946;BME280;55635;50.264;11.918;2023-01-16T15:08:44;92874.81;;;5.58;65.71
40946;BME280;55635;50.264;11.918;2023-01-16T15:11:30;92869.84;;;5.98;65.14
40946;BME280;55635;50.264;11.918;2023-01-16T15:14:19;92856.06;;;6.14;63.98
40946;BME280;55635;50.264;11.918;2023-01-16T15:17:35;92871.84;;;5.55;64.34
40946;BME280;55635;50.264;11.918;2023-01-16T15:20:37;92875.59;;;5.47;65.94
40946;BME280;55635;50.264;11.918;2023-01-16T15:23:38;92863.88;;;5.13;65.14
40946;BME280;55635;50.264;11.918;2023-01-16T15:26:20;92882.31;;;5.25;66.23
40946;BME280;55635;50.264;11.918;2023-01-16T15:32:11;92892.22;;;5.05;65.98
40946;BME280;55635;50.264;11.918;2023-01-16T15:35:15;92881.53;;;5.06;66.76
40946;BME280;55635;50.264;11.918;2023-01-16T15:38:05;92874.50;;;5.18;67.40
40946;BME280;55635;50.264;11.918;2023-01-16T15:40:50;92874.44;;;5.07;67.69
40946;BME280;55635;50.264;11.918;2023-01-16T15:43:32;92871.09;;;5.00;67.79
40946;BME280;55635;50.264;11.918;2023-01-16T15:52:32;92859.97;;;5.34;68.95
40946;BME280;55635;50.264;11.918;2023-01-16T15:55:30;92842.06;;;5.13;68.55
40946;BME280;55635;50.264;11.918;2023-01-16T15:58:25;92844.91;;;5.11;68.36
40946;BME280;55635;50.264;11.918;2023-01-16T16:01:06;92834.03;;;5.08;69.66
40946;BME280;55635;50.264;11.918;2023-01-16T16:03:52;92836.09;;;5.06;68.94
40946;BME280;55635;50.264;11.918;2023-01-16T16:06:34;92811.72;;;4.80;68.86
40946;BME280;55635;50.264;11.918;2023-01-16T16:09:21;92815.22;;;4.92;69.15
40946;BME280;55635;50.264;11.918;2023-01-16T16:12:03;92823.19;;;5.04;69.51
40946;BME280;55635;50.264;11.918;2023-01-16T16:14:45;92821.25;;;5.11;69.92
40946;BME280;55635;50.264;11.918;2023-01-16T16:18:12;92816.56;;;5.31;69.26
40946;BME280;55635;50.264;11.918;2023-01-16T16:21:07;92808.22;;;5.05;69.88
40946;BME280;55635;50.264;11.918;2023-01-16T16:24:02;92806.50;;;5.28;70.05
40946;BME280;55635;50.264;11.918;2023-01-16T16:26:44;92798.97;;;5.02;70.18
40946;BME280;55635;50.264;11.918;2023-01-16T16:29:25;92780.41;;;5.15;69.46
40946;BME280;55635;50.264;11.918;2023-01-16T16:32:13;92771.00;;;5.08;70.06
40946;BME280;55635;50.264;11.918;2023-01-16T16:34:56;92777.34;;;5.18;70.19
40946;BME280;55635;50.264;11.918;2023-01-16T16:37:41;92772.38;;;4.80;70.71
40946;BME280;55635;50.264;11.918;2023-01-16T16:40:25;92776.28;;;4.89;70.50
40946;BME280;55635;50.264;11.918;2023-01-16T16:43:06;92758.34;;;4.86;70.21
40946;BME280;55635;50.264;11.918;2023-01-16T16:45:47;92756.19;;;4.83;69.86
40946;BME280;55635;50.264;11.918;2023-01-16T16:48:30;92751.91;;;4.89;70.10
40946;BME280;55635;50.264;11.918;2023-01-16T16:51:29;92742.13;;;4.60;72.12
40946;BME280;55635;50.264;11.918;2023-01-16T16:54:15;92730.19;;;4.64;71.01
40946;BME280;55635;50.264;11.918;2023-01-16T16:56:58;92722.59;;;4.74;70.78
40946;BME280;55635;50.264;11.918;2023-01-16T16:59:39;92701.81;;;4.72;70.60
40946;BME280;55635;50.264;11.918;2023-01-16T17:02:24;92703.91;;;4.82;70.86
40946;BME280;55635;50.264;11.918;2023-01-16T17:05:07;92697.09;;;4.63;71.58
40946;BME280;55635;50.264;11.918;2023-01-16T17:07:51;92688.50;;;4.74;71.83
40946;BME280;55635;50.264;11.918;2023-01-16T17:10:35;92681.00;;;4.59;72.07
40946;BME280;55635;50.264;11.918;2023-01-16T17:13:18;92666.41;;;4.63;71.31
40946;BME280;55635;50.264;11.918;2023-01-16T17:16:00;92723.38;;;4.74;71.55